Eastville, Virginia
Current Conditions -  °F | °C
As of 8:55 PM on Monday 22 Dec 2014 (Local Time) from KMFV Reporting Station
Overcast Overcast  
Wind Chill: 52°   Ceiling: 1300
Heat Index: 52°   Visibility: 10mi
Dew Point: 46°   Wind: 14mph
Humidity: 82%   Direction: 60°ENE
Pressure: 30.03"   Gusts: 20mph
Location:  37.35°N, 75.95°W
Report Text: KMFV 230155Z AUTO 06012G17KT 10SM OVC013 11/08 A3003 RMK AO2
Loading
Personal Weather Stations






























Interactive Weather Map New forecast layout! Learn more

10-Day Weather Forecast

Advertisements
Track Severe Weather on mobile